Time;durP1;ratioP1;P1;durP2;ratioP2;P2;SDS_P1;SDS_P2;PMS_P1;PMS_P2;Temp;Humidity;BMP_temperature;BMP_pressure;BME280_temperature;BME280_humidity;BME280_pressure;Samples;Min_cycle;Max_cycle;Signal;HPM_P1;HPM_P2
2023/07/10 00:02:30;;;;;;;6.95;3.90;;;;;;;27.73;48.62;99315.72;7265519;40;20551;31
2023/07/10 00:08:02;;;;;;;9.30;3.90;;;;;;;27.61;48.65;99306.84;7235010;40;20735;31
2023/07/10 00:13:35;;;;;;;6.40;3.78;;;;;;;27.52;48.88;99313.19;7190019;40;20601;31
2023/07/10 00:19:07;;;;;;;5.60;4.10;;;;;;;27.51;48.92;99314.34;7195676;40;20254;31
2023/07/10 00:24:42;;;;;;;7.80;3.67;;;;;;;27.46;49.13;99301.28;7191730;40;20375;31
2023/07/10 00:30:13;;;;;;;9.10;4.50;;;;;;;27.37;49.33;99291.00;7040944;40;20354;31
2023/07/10 00:35:45;;;;;;;6.00;3.97;;;;;;;27.41;49.74;99294.88;7204614;40;20290;31
2023/07/10 00:41:20;;;;;;;5.16;3.82;;;;;;;27.30;49.97;99307.84;7233509;40;20443;31
2023/07/10 00:51:58;;;;;;;6.03;3.92;;;;;;;27.28;50.00;99358.00;7221405;40;20352;31
2023/07/10 01:02:35;;;;;;;5.60;3.80;;;;;;;26.94;50.71;99364.22;7229738;40;21170;31
2023/07/10 01:08:08;;;;;;;7.44;4.00;;;;;;;26.88;51.22;99369.72;7251734;40;20647;31
2023/07/10 01:18:44;;;;;;;6.43;3.80;;;;;;;26.74;51.13;99395.31;7251464;40;20265;31
2023/07/10 01:24:15;;;;;;;5.65;3.80;;;;;;;26.60;51.70;99389.41;7214198;40;20625;31
2023/07/10 01:35:09;;;;;;;6.75;4.45;;;;;;;26.32;52.72;99389.75;7272318;40;20277;31
2023/07/10 01:45:55;;;;;;;7.45;4.15;;;;;;;26.26;53.20;99410.16;7261609;40;21166;31
2023/07/10 01:51:30;;;;;;;5.75;3.70;;;;;;;26.25;52.97;99395.50;7294078;39;20264;31
2023/07/10 01:57:02;;;;;;;6.87;4.28;;;;;;;26.28;52.96;99385.88;7255324;40;20620;31
2023/07/10 02:03:09;;;;;;;7.20;4.00;;;;;;;26.20;54.19;99381.63;7203531;40;20250;31
2023/07/10 02:13:31;;;;;;;7.22;4.55;;;;;;;26.29;54.14;99377.28;7235084;40;21140;31
2023/07/10 02:24:08;;;;;;;5.62;3.92;;;;;;;26.25;54.46;99398.25;7279341;39;21664;31
2023/07/10 02:34:29;;;;;;;20.70;4.60;;;;;;;26.01;55.14;99361.84;7274478;39;22151;31
2023/07/10 02:45:04;;;;;;;8.52;4.65;;;;;;;26.12;54.95;99411.66;7266398;39;21087;31
2023/07/10 02:50:36;;;;;;;5.46;4.00;;;;;;;25.90;55.54;99379.41;7313334;39;20272;31
2023/07/10 02:55:54;;;;;;;4.83;4.10;;;;;;;25.83;56.49;99389.00;7223722;40;20281;31
2023/07/10 03:01:29;;;;;;;5.82;4.20;;;;;;;25.82;57.10;99390.94;7195992;40;20480;31
2023/07/10 03:07:04;;;;;;;4.70;3.90;;;;;;;25.73;56.98;99400.78;7225452;40;20262;31
2023/07/10 03:12:22;;;;;;;9.40;4.25;;;;;;;25.76;57.13;99413.22;7144273;40;20255;31
2023/07/10 03:23:02;;;;;;;5.84;4.40;;;;;;;26.02;56.53;99435.31;7317047;39;20393;31
2023/07/10 03:33:38;;;;;;;9.18;4.78;;;;;;;26.04;56.72;99435.06;7271254;39;21433;31
2023/07/10 03:39:14;;;;;;;6.75;4.30;;;;;;;26.04;56.77;99448.88;7253987;40;20335;31
2023/07/10 03:44:35;;;;;;;7.45;4.70;;;;;;;26.07;56.94;99436.47;7264250;39;20279;31
2023/07/10 03:49:55;;;;;;;7.50;4.50;;;;;;;25.98;58.10;99464.56;7313796;39;20319;31
2023/07/10 03:55:29;;;;;;;7.20;4.50;;;;;;;25.82;58.12;99470.19;7323057;39;20321;31
2023/07/10 04:01:02;;;;;;;7.80;4.32;;;;;;;25.79;57.71;99482.59;7238254;40;20515;31
2023/07/10 04:06:19;;;;;;;5.60;4.32;;;;;;;25.78;57.79;99491.16;7251336;40;20302;31
2023/07/10 04:11:55;;;;;;;5.40;4.55;;;;;;;25.78;58.60;99488.38;7181967;40;20559;31
2023/07/10 04:17:15;;;;;;;7.50;4.60;;;;;;;25.92;59.59;99504.31;7190411;40;20826;31
2023/07/10 04:22:35;;;;;;;8.57;5.03;;;;;;;25.91;60.31;99524.72;7252958;40;20966;31
2023/07/10 04:28:06;;;;;;;6.97;4.57;;;;;;;25.86;61.44;99526.59;7248234;40;21370;31
2023/07/10 04:33:26;;;;;;;9.25;4.95;;;;;;;25.85;61.51;99528.50;7199485;40;20281;31
2023/07/10 04:39:02;;;;;;;5.70;4.65;;;;;;;25.80;61.13;99524.88;7237402;40;20727;31
2023/07/10 04:44:37;;;;;;;6.75;4.80;;;;;;;25.77;63.64;99514.31;7194681;40;20456;31
2023/07/10 04:50:09;;;;;;;8.55;5.18;;;;;;;25.60;64.37;99497.00;7222699;40;20332;31
2023/07/10 04:55:26;;;;;;;6.50;5.10;;;;;;;25.54;63.99;99498.84;7201036;40;20376;31
2023/07/10 05:01:08;;;;;;;6.60;4.65;;;;;;;25.53;64.78;99506.31;7233421;40;20366;31
2023/07/10 05:06:43;;;;;;;8.03;5.30;;;;;;;25.46;65.28;99502.84;7241165;40;20249;31
2023/07/10 05:12:15;;;;;;;7.50;4.97;;;;;;;25.65;65.06;99510.88;7231345;40;20288;31
2023/07/10 05:22:55;;;;;;;7.55;5.40;;;;;;;25.88;64.97;99538.22;7277948;39;21048;31
2023/07/10 05:28:31;;;;;;;7.45;5.10;;;;;;;25.67;65.21;99539.88;7250627;40;20261;31
2023/07/10 05:34:06;;;;;;;8.20;5.45;;;;;;;25.75;65.37;99542.22;7214449;40;20320;31
2023/07/10 05:39:39;;;;;;;7.16;5.46;;;;;;;25.82;65.03;99548.38;7177315;40;22409;31
2023/07/10 05:44:59;;;;;;;7.90;4.75;;;;;;;26.03;63.41;99550.28;7117044;40;20251;31
2023/07/10 05:50:34;;;;;;;13.88;5.72;;;;;;;26.02;65.74;99556.09;7148373;40;20334;31
2023/07/10 05:56:10;;;;;;;7.87;4.87;;;;;;;25.95;65.74;99570.09;7208653;40;20258;31
2023/07/10 06:01:42;;;;;;;6.97;5.10;;;;;;;26.05;65.50;99571.31;7201005;40;20245;31
2023/07/10 06:07:17;;;;;;;7.35;4.95;;;;;;;26.24;64.67;99576.25;7221975;40;20253;31
2023/07/10 06:12:50;;;;;;;8.60;5.00;;;;;;;26.24;64.68;99575.44;7225944;40;21378;31
2023/07/10 06:18:10;;;;;;;8.40;5.03;;;;;;;26.32;64.10;99580.50;7216301;40;20235;31
2023/07/10 06:23:57;;;;;;;5.95;5.05;;;;;;;26.23;64.86;99577.38;7234483;40;20604;31
2023/07/10 06:29:32;;;;;;;8.80;5.10;;;;;;;26.27;64.70;99578.50;7236169;40;20257;31
2023/07/10 06:34:49;;;;;;;7.60;4.95;;;;;;;26.44;64.03;99584.78;7243964;40;20346;31
2023/07/10 06:40:24;;;;;;;8.20;5.20;;;;;;;26.59;64.73;99594.34;7275296;40;20277;31
2023/07/10 06:51:00;;;;;;;7.00;4.90;;;;;;;26.69;64.62;99598.03;7290538;39;21265;31
2023/07/10 06:56:34;;;;;;;6.58;5.23;;;;;;;26.89;64.07;99592.72;7273968;39;21089;31
2023/07/10 07:01:51;;;;;;;9.47;5.00;;;;;;;27.15;62.34;99587.41;7238771;40;20245;31
2023/07/10 07:07:24;;;;;;;7.65;5.10;;;;;;;27.20;63.32;99590.22;7240745;40;21383;31
2023/07/10 07:12:59;;;;;;;6.90;5.03;;;;;;;27.25;63.49;99576.41;7238588;40;21408;31
2023/07/10 07:18:32;;;;;;;8.55;5.12;;;;;;;27.28;63.38;99585.00;7210847;40;20632;31
2023/07/10 07:24:05;;;;;;;8.37;5.20;;;;;;;27.43;62.96;99584.25;6987463;40;20277;31
2023/07/10 07:29:22;;;;;;;6.72;4.97;;;;;;;27.54;62.59;99579.66;7225053;40;20633;31
2023/07/10 07:34:42;;;;;;;7.03;5.25;;;;;;;27.59;62.04;99590.78;7232377;40;20576;31
2023/07/10 07:40:16;;;;;;;6.90;4.67;;;;;;;27.65;62.56;99596.06;7229827;40;20292;31
2023/07/10 07:46:05;;;;;;;6.87;5.27;;;;;;;27.82;61.32;99592.28;7264741;39;21496;31
2023/07/10 07:51:40;;;;;;;6.35;4.90;;;;;;;27.96;60.85;99596.22;7297346;39;20357;31
2023/07/10 07:57:13;;;;;;;5.24;4.30;;;;;;;28.13;60.01;99606.03;7275068;40;20463;31
2023/07/10 08:02:49;;;;;;;6.93;4.75;;;;;;;28.20;60.75;99608.56;7232530;40;20311;31
2023/07/10 08:08:21;;;;;;;5.50;4.62;;;;;;;28.13;60.43;99613.50;7204394;40;20274;31
2023/07/10 08:13:53;;;;;;;6.97;5.13;;;;;;;28.18;59.93;99619.91;7201858;40;20346;31
2023/07/10 08:19:22;;;;;;;7.45;4.90;;;;;;;28.21;60.60;99627.69;7244112;40;20251;31
2023/07/10 08:24:54;;;;;;;7.70;5.07;;;;;;;28.36;59.28;99632.47;7181669;40;20254;31
2023/07/10 08:30:30;;;;;;;6.58;4.66;;;;;;;28.33;59.73;99626.63;7179136;40;20250;31
2023/07/10 08:36:07;;;;;;;5.40;4.56;;;;;;;28.53;59.45;99627.53;7203138;40;20317;31
2023/07/10 08:41:25;;;;;;;6.18;4.82;;;;;;;28.93;56.32;99631.50;7187464;40;20274;31
2023/07/10 08:47:00;;;;;;;6.82;4.50;;;;;;;28.92;56.46;99630.69;7219862;40;20262;31
2023/07/10 08:52:29;;;;;;;8.00;4.53;;;;;;;29.14;56.80;99627.63;7174136;40;20263;31
2023/07/10 08:58:01;;;;;;;5.32;4.00;;;;;;;29.29;54.11;99618.47;7203589;40;20343;31
2023/07/10 09:03:35;;;;;;;10.04;4.50;;;;;;;29.59;54.26;99614.84;7244334;40;21509;31
2023/07/10 09:09:04;;;;;;;6.12;4.36;;;;;;;29.78;53.36;99615.94;7232347;40;20240;31
2023/07/10 09:14:37;;;;;;;6.37;4.07;;;;;;;29.65;52.73;99611.81;7188706;40;20337;31
2023/07/10 09:20:10;;;;;;;5.62;4.30;;;;;;;30.03;51.38;99613.09;7205010;40;20257;31
2023/07/10 09:25:42;;;;;;;5.67;3.73;;;;;;;30.23;50.29;99599.13;7163978;40;20266;31
2023/07/10 09:31:18;;;;;;;4.70;4.14;;;;;;;30.55;49.35;99611.75;7226557;40;20364;31
2023/07/10 09:36:51;;;;;;;4.68;3.58;;;;;;;30.75;48.86;99608.88;7201309;40;20266;31
2023/07/10 09:42:23;;;;;;;5.85;4.03;;;;;;;30.62;48.02;99615.06;7202957;40;20269;31
2023/07/10 09:48:10;;;;;;;5.45;4.00;;;;;;;30.74;47.87;99618.34;7222037;40;20579;31
2023/07/10 09:53:47;;;;;;;5.43;3.90;;;;;;;30.77;47.75;99606.63;7205334;40;21429;31
2023/07/10 10:04:35;;;;;;;5.60;3.83;;;;;;;31.25;45.65;99604.87;7242677;40;20272;31
2023/07/10 10:15:12;;;;;;;5.93;4.20;;;;;;;31.62;44.57;99590.34;7286293;39;20344;31
2023/07/10 10:25:52;;;;;;;4.90;4.00;;;;;;;31.00;43.98;99588.34;7280765;39;21429;31
2023/07/10 10:31:41;;;;;;;7.25;4.12;;;;;;;30.97;44.14;99589.78;7315750;39;20368;31
2023/07/10 10:37:15;;;;;;;5.75;4.25;;;;;;;31.38;42.68;99579.09;7241902;40;20423;31
2023/07/10 10:42:48;;;;;;;3.92;3.50;;;;;;;31.58;41.69;99578.94;7253337;40;20276;31
2023/07/10 10:48:25;;;;;;;5.10;3.30;;;;;;;31.75;40.18;99589.63;7197027;40;20391;31
2023/07/10 10:54:00;;;;;;;5.90;3.60;;;;;;;31.75;39.94;99592.41;7213081;40;20269;31
2023/07/10 10:59:34;;;;;;;4.65;3.80;;;;;;;31.90;39.47;99589.44;7231692;40;21417;31
2023/07/10 11:10:12;;;;;;;6.40;3.50;;;;;;;32.05;38.40;99575.31;7258602;40;20934;31
2023/07/10 11:20:48;;;;;;;3.60;3.00;;;;;;;31.92;34.32;99564.88;7294410;39;21131;31
2023/07/10 11:26:24;;;;;;;5.05;3.20;;;;;;;32.02;35.77;99561.16;7273240;40;20268;31
2023/07/10 11:31:59;;;;;;;4.40;2.95;;;;;;;32.20;35.70;99546.44;7274536;40;20256;31
2023/07/10 11:38:04;;;;;;;6.05;3.33;;;;;;;32.10;37.94;99552.97;7217612;40;20253;31
2023/07/10 11:44:10;;;;;;;3.92;3.53;;;;;;;32.13;37.54;99535.63;7178369;40;20277;31
2023/07/10 11:49:39;;;;;;;4.05;3.45;;;;;;;32.28;36.75;99542.97;7270260;40;20280;31
2023/07/10 11:55:29;;;;;;;5.15;3.50;;;;;;;32.34;37.36;99538.94;7251927;40;20444;31
2023/07/10 12:01:02;;;;;;;5.05;3.55;;;;;;;32.70;38.61;99539.28;7254516;40;20253;31
2023/07/10 12:06:37;;;;;;;4.23;3.30;;;;;;;33.08;36.26;99535.28;7202128;40;20266;31
2023/07/10 12:12:10;;;;;;;4.62;3.20;;;;;;;32.94;34.31;99533.59;7228641;40;20356;31
2023/07/10 12:17:44;;;;;;;5.60;3.28;;;;;;;33.09;34.83;99534.13;7156935;40;20273;31
2023/07/10 12:23:20;;;;;;;6.03;3.08;;;;;;;32.96;35.17;99531.31;7116660;40;21280;31
2023/07/10 12:28:40;;;;;;;3.62;2.90;;;;;;;33.13;33.60;99528.75;7158925;40;20258;31
2023/07/10 12:34:13;;;;;;;4.57;2.50;;;;;;;33.32;34.06;99520.34;7175326;40;20277;31
2023/07/10 12:39:47;;;;;;;4.58;2.90;;;;;;;33.26;32.54;99519.59;7218563;40;20260;31
2023/07/10 12:45:20;;;;;;;3.32;2.90;;;;;;;33.37;33.66;99526.69;7221417;40;20521;31
2023/07/10 12:50:56;;;;;;;4.06;2.90;;;;;;;33.36;32.72;99515.78;7252224;39;20411;31
2023/07/10 12:56:25;;;;;;;4.60;2.80;;;;;;;33.50;32.08;99509.09;7242147;40;21430;31
2023/07/10 13:02:04;;;;;;;3.95;2.90;;;;;;;33.54;30.00;99514.88;7232212;40;21806;31
2023/07/10 13:07:39;;;;;;;2.90;2.60;;;;;;;33.23;30.99;99514.66;7184905;40;20699;31
2023/07/10 13:13:13;;;;;;;4.00;2.60;;;;;;;33.44;30.07;99515.91;7135364;40;20263;31
2023/07/10 13:18:48;;;;;;;3.87;2.72;;;;;;;33.59;30.78;99506.41;7139886;40;21584;31
2023/07/10 13:24:22;;;;;;;3.26;2.60;;;;;;;33.43;29.45;99496.66;7200371;40;20593;31
2023/07/10 13:29:42;;;;;;;5.17;2.80;;;;;;;33.67;29.94;99508.50;7153474;40;20262;31
2023/07/10 13:35:02;;;;;;;3.60;2.70;;;;;;;33.97;30.79;99505.06;7200009;40;21366;31
2023/07/10 13:45:42;;;;;;;2.75;2.30;;;;;;;33.81;29.88;99514.91;7296039;39;20260;31
2023/07/10 13:56:25;;;;;;;4.43;2.50;;;;;;;33.80;29.25;99502.06;7293240;39;20303;31
2023/07/10 14:02:01;;;;;;;3.92;2.60;;;;;;;33.55;29.32;99499.78;7274602;39;20379;31
2023/07/10 14:07:36;;;;;;;5.22;2.53;;;;;;;33.57;30.27;99503.06;7013117;40;21295;31
2023/07/10 14:12:56;;;;;;;2.97;2.53;;;;;;;33.68;30.13;99510.16;7254716;40;20284;31
2023/07/10 14:23:31;;;;;;;2.87;2.60;;;;;;;33.67;29.80;99488.09;7217045;40;21068;31
2023/07/10 14:29:06;;;;;;;4.68;2.45;;;;;;;33.74;29.08;99491.31;7239472;40;20261;31
2023/07/10 14:34:27;;;;;;;3.95;2.45;;;;;;;33.61;30.34;99490.16;7278810;40;20362;31
2023/07/10 14:40:03;;;;;;;4.34;2.74;;;;;;;33.63;30.71;99493.44;7233558;40;20448;31
2023/07/10 14:45:38;;;;;;;5.10;2.40;;;;;;;33.56;29.61;99489.41;7221214;39;20280;31
2023/07/10 14:50:58;;;;;;;4.10;2.50;;;;;;;33.63;29.00;99479.47;7252698;39;21416;31
2023/07/10 14:56:31;;;;;;;3.85;2.60;;;;;;;33.42;30.10;99473.47;7246196;40;20261;31
2023/07/10 15:02:06;;;;;;;4.44;2.70;;;;;;;33.53;29.64;99466.53;7252612;40;20257;31
2023/07/10 15:12:44;;;;;;;4.60;2.80;;;;;;;33.46;29.13;99460.53;7317793;39;22226;31
2023/07/10 15:18:16;;;;;;;4.00;2.62;;;;;;;33.43;30.33;99461.16;7202136;40;20326;31
2023/07/10 15:23:37;;;;;;;4.12;2.28;;;;;;;33.36;30.56;99463.50;7199303;40;20265;31
2023/07/10 15:29:12;;;;;;;2.80;2.50;;;;;;;33.31;29.99;99476.75;7213287;40;20383;31
2023/07/10 15:34:44;;;;;;;4.25;2.55;;;;;;;33.29;29.43;99463.12;7213432;40;21560;31
2023/07/10 15:40:17;;;;;;;3.97;2.60;;;;;;;33.30;30.16;99473.16;7222957;40;21037;31
2023/07/10 15:45:50;;;;;;;3.00;2.40;;;;;;;33.18;29.47;99460.81;7216471;40;21105;31
2023/07/10 15:51:20;;;;;;;3.65;2.70;;;;;;;33.21;29.34;99460.22;7213712;40;21934;31
2023/07/10 15:56:55;;;;;;;3.30;2.60;;;;;;;33.20;29.06;99455.75;7192784;40;20509;31
2023/07/10 16:02:37;;;;;;;3.00;2.70;;;;;;;33.07;29.56;99462.94;7152339;40;20974;31
2023/07/10 16:08:11;;;;;;;2.72;2.33;;;;;;;32.93;29.84;99465.72;7128814;40;21342;31
2023/07/10 16:13:46;;;;;;;2.90;2.63;;;;;;;32.76;29.18;99451.50;7153404;40;20617;31
2023/07/10 16:19:24;;;;;;;4.20;2.85;;;;;;;32.73;30.10;99448.50;7144490;40;20616;31
2023/07/10 16:24:42;;;;;;;2.97;2.58;;;;;;;32.73;29.15;99452.13;7174899;40;20266;31
2023/07/10 16:30:02;;;;;;;3.90;2.90;;;;;;;32.47;29.90;99446.06;7270689;39;20290;31
2023/07/10 16:35:37;;;;;;;3.12;2.75;;;;;;;32.59;31.04;99449.25;7294372;39;20306;31
2023/07/10 16:41:09;;;;;;;2.95;2.65;;;;;;;32.46;30.09;99443.63;7282346;40;20260;31
2023/07/10 16:46:27;;;;;;;4.43;2.60;;;;;;;32.55;30.21;99444.56;7253947;40;20268;31
2023/07/10 16:51:57;;;;;;;5.20;2.80;;;;;;;32.36;31.59;99440.97;7256406;40;21336;31
2023/07/10 16:57:33;;;;;;;3.33;2.67;;;;;;;32.35;30.94;99437.34;7263175;40;20439;31
2023/07/10 17:03:06;;;;;;;4.15;2.70;;;;;;;32.22;31.30;99431.72;7167136;40;21409;31
2023/07/10 17:08:42;;;;;;;3.98;2.74;;;;;;;32.04;31.79;99450.91;7146321;40;20262;31
2023/07/10 17:14:14;;;;;;;3.86;2.64;;;;;;;31.91;30.94;99436.87;7126902;40;20321;31
2023/07/10 17:19:31;;;;;;;3.40;2.74;;;;;;;31.92;32.01;99438.53;7185531;40;20265;31
2023/07/10 17:25:07;;;;;;;2.95;2.47;;;;;;;31.81;31.36;99431.47;7199416;40;21803;31
2023/07/10 17:30:39;;;;;;;3.85;2.60;;;;;;;31.71;32.46;99430.47;7238509;40;20264;31
2023/07/10 17:36:14;;;;;;;4.40;2.37;;;;;;;31.68;32.22;99427.47;7250555;40;20549;31
2023/07/10 17:41:47;;;;;;;4.02;2.72;;;;;;;31.60;31.67;99425.31;7166064;40;21977;31
2023/07/10 17:47:19;;;;;;;4.10;2.78;;;;;;;31.56;32.57;99421.47;7200809;40;20288;31
2023/07/10 17:52:51;;;;;;;4.87;2.77;;;;;;;31.45;33.06;99423.53;7157219;40;21989;31
2023/07/10 17:58:28;;;;;;;5.18;2.86;;;;;;;31.33;32.98;99430.66;7213202;40;20281;31
2023/07/10 18:04:01;;;;;;;5.00;3.10;;;;;;;31.28;33.23;99426.81;7241899;40;20275;31
2023/07/10 18:09:32;;;;;;;7.72;3.15;;;;;;;31.18;32.51;99429.72;7181175;40;20292;31
2023/07/10 18:15:07;;;;;;;6.35;2.53;;;;;;;30.97;32.58;99428.25;7134711;40;20266;31
2023/07/10 18:20:42;;;;;;;6.45;2.97;;;;;;;30.82;33.18;99426.44;7183353;40;21816;31
2023/07/10 18:26:02;;;;;;;5.63;2.83;;;;;;;30.76;32.76;99432.38;7161989;40;20553;31
2023/07/10 18:31:36;;;;;;;5.40;2.72;;;;;;;30.69;34.06;99437.44;7212881;40;20402;31
2023/07/10 18:36:53;;;;;;;5.55;2.75;;;;;;;30.56;33.52;99438.09;7205213;40;20340;31
2023/07/10 18:42:28;;;;;;;5.35;3.10;;;;;;;30.34;34.71;99436.59;7239775;40;20777;31
2023/07/10 18:48:02;;;;;;;9.15;3.00;;;;;;;30.09;34.43;99431.22;7214463;40;21229;31
2023/07/10 18:53:33;;;;;;;5.60;2.80;;;;;;;30.10;35.04;99424.53;7183780;40;20808;31
2023/07/10 18:59:05;;;;;;;6.70;2.86;;;;;;;30.06;34.86;99426.19;7231400;40;20675;31
2023/07/10 19:04:36;;;;;;;5.05;2.90;;;;;;;29.89;35.09;99434.09;7226716;40;21460;31
2023/07/10 19:10:08;;;;;;;4.10;2.58;;;;;;;29.66;35.46;99437.56;7108407;40;20595;31
2023/07/10 19:15:28;;;;;;;4.57;3.28;;;;;;;29.42;36.20;99435.44;7092181;40;20251;31
2023/07/10 19:21:04;;;;;;;8.26;3.78;;;;;;;29.16;37.28;99433.00;7150022;40;21048;31
2023/07/10 19:26:36;;;;;;;8.50;3.53;;;;;;;28.87;37.55;99425.31;7183931;39;20284;31
2023/07/10 19:37:18;;;;;;;4.25;2.90;;;;;;;28.70;36.92;99423.91;7211030;40;20278;31
2023/07/10 19:48:08;;;;;;;4.95;3.00;;;;;;;28.57;36.40;99423.34;7283082;39;20356;31
2023/07/10 19:53:41;;;;;;;3.62;2.80;;;;;;;28.55;36.51;99430.28;7273048;40;20419;31
2023/07/10 19:58:58;;;;;;;3.30;2.90;;;;;;;28.39;36.02;99431.41;7263810;40;20253;31
2023/07/10 20:04:30;;;;;;;5.64;3.18;;;;;;;28.02;37.49;99429.69;7212876;40;20377;31
2023/07/10 20:10:03;;;;;;;3.62;2.90;;;;;;;27.81;36.97;99429.91;7176330;40;20274;31
2023/07/10 20:20:39;;;;;;;5.40;3.07;;;;;;;27.92;38.11;99426.88;7232571;40;20679;31
2023/07/10 20:26:13;;;;;;;4.87;3.37;;;;;;;27.92;38.15;99424.09;7228611;40;20275;31
2023/07/10 20:31:45;;;;;;;3.65;3.00;;;;;;;27.76;38.07;99431.56;7043731;40;21443;31
2023/07/10 20:37:20;;;;;;;3.90;2.78;;;;;;;27.64;38.27;99428.22;7193970;40;20328;31
2023/07/10 20:42:53;;;;;;;4.77;2.90;;;;;;;27.60;37.58;99434.56;7164398;40;20271;31
2023/07/10 20:53:31;;;;;;;5.35;3.22;;;;;;;27.30;38.70;99419.44;7190604;40;20443;31
2023/07/10 20:59:02;;;;;;;3.04;2.74;;;;;;;27.23;39.37;99415.25;7225987;40;20295;31
2023/07/10 21:10:02;;;;;;;3.70;2.90;;;;;;;26.95;39.04;99410.12;7297550;39;21396;31
2023/07/10 21:15:36;;;;;;;4.26;3.22;;;;;;;26.83;39.72;99422.22;7264749;40;20534;31
2023/07/10 21:21:08;;;;;;;4.05;2.90;;;;;;;26.75;39.81;99431.00;7281577;39;20272;31
2023/07/10 21:26:41;;;;;;;6.05;3.20;;;;;;;26.84;39.61;99425.81;7256755;40;20280;31
2023/07/10 21:32:16;;;;;;;3.15;2.85;;;;;;;26.75;39.89;99428.25;7198802;40;21199;31
2023/07/10 21:37:47;;;;;;;3.20;2.80;;;;;;;26.52;40.56;99427.78;7177450;40;20278;31
2023/07/10 21:43:24;;;;;;;3.45;2.90;;;;;;;26.42;41.23;99431.28;7196293;40;21503;31
2023/07/10 21:49:00;;;;;;;6.00;3.30;;;;;;;26.31;41.40;99438.69;7177681;40;20491;31
2023/07/10 21:54:18;;;;;;;5.82;3.33;;;;;;;25.99;41.66;99429.50;7141033;40;21195;31
2023/07/10 21:59:50;;;;;;;5.05;3.28;;;;;;;25.73;42.36;99425.62;7161797;40;21090;31
2023/07/10 22:05:27;;;;;;;4.67;3.13;;;;;;;25.77;42.90;99428.69;7218595;40;20309;31
2023/07/10 22:11:02;;;;;;;4.08;3.00;;;;;;;25.83;41.95;99424.91;7291549;39;20450;31
2023/07/10 22:16:37;;;;;;;4.10;2.95;;;;;;;25.71;42.64;99427.84;7274349;39;20388;31
2023/07/10 22:22:13;;;;;;;4.77;3.27;;;;;;;25.52;42.86;99424.53;7178150;40;20260;31
2023/07/10 22:27:34;;;;;;;4.27;3.10;;;;;;;25.37;43.81;99412.47;7125175;40;20251;31
2023/07/10 22:33:08;;;;;;;6.07;3.20;;;;;;;25.40;44.17;99421.09;7165392;40;20254;31
2023/07/10 22:38:44;;;;;;;5.65;3.45;;;;;;;25.29;43.83;99412.91;7136560;40;20266;31
2023/07/10 22:44:20;;;;;;;4.20;3.42;;;;;;;25.17;43.04;99407.53;7203394;40;20268;31
2023/07/10 22:49:55;;;;;;;3.50;3.20;;;;;;;25.07;43.25;99408.25;7212348;40;20347;31
2023/07/10 22:55:30;;;;;;;4.45;2.95;;;;;;;24.83;45.12;99401.25;7175985;40;20285;31
2023/07/10 23:00:46;;;;;;;5.05;3.30;;;;;;;24.90;44.67;99404.69;7147896;40;20270;31
2023/07/10 23:06:21;;;;;;;5.33;3.13;;;;;;;24.83;43.92;99398.50;7200755;40;20515;31
2023/07/10 23:11:56;;;;;;;4.30;3.50;;;;;;;24.72;44.36;99393.91;7260325;39;20261;31
2023/07/10 23:17:17;;;;;;;4.00;3.20;;;;;;;24.63;44.60;99389.91;7220863;40;20424;31
2023/07/10 23:22:37;;;;;;;4.70;3.10;;;;;;;24.66;45.26;99390.25;7225212;40;20432;31
2023/07/10 23:28:13;;;;;;;3.72;3.05;;;;;;;24.58;45.58;99384.31;7254731;40;20260;31
2023/07/10 23:33:33;;;;;;;4.95;2.90;;;;;;;24.59;45.64;99381.31;7214835;40;20352;31
2023/07/10 23:39:09;;;;;;;4.90;3.40;;;;;;;24.43;45.93;99373.09;7214678;40;20434;31
2023/07/10 23:44:45;;;;;;;4.70;2.90;;;;;;;24.23;45.71;99376.34;7237505;40;20453;31
2023/07/10 23:50:21;;;;;;;4.18;3.03;;;;;;;24.28;45.91;99375.59;7232195;40;20580;31
2023/07/10 23:55:41;;;;;;;3.55;3.08;;;;;;;24.27;46.22;99360.97;7222614;40;20257;31
